Argonne, South Dakota
Current Conditions -  °F | °C
As of 9:35 PM on Friday 24 Oct 2014 (Local Time) from KMDS Reporting Station
Clear Clear  
Wind Chill: 57°   Ceiling: Unl
Heat Index: 57°   Visibility: 10mi
Dew Point: 37°   Wind: 8mph
Humidity: 48%   Direction: 280°W
Pressure: 29.98"   Gusts: NA
Location:  44.0529°N, 97.5161°W
Report Text: KMDS 250235Z AUTO 28007KT 10SM CLR 14/03 A2998 RMK AO2
Loading
Personal Weather Stations






























Interactive Weather Map
Tropical Storm Tracking
New forecast layout! Learn more

10-Day Weather Forecast

Advertisements
Track Severe Weather on mobile